Latest Weather Observations for Hobart

IDT60901

Issued at 11:15 am EDT Saturday 29 November 2014 (issued every 10 minutes, with the page automatically refreshed every 10 minutes)

About weather observations | Map of Hobart area stations | Latest observations for Hobart area | Other Formats
Station Details ID: 094029 Name: HOBART (ELLERSLIE ROAD) Lat: -42.89 Lon: 147.33 Height: 50.5 m
Data from the previous 72 hours. | See also: Recent months at Hobart
Date/Time
EDT
Tmp

°C
App
Tmp
°C
Dew
Point
°C
Rel
Hum
%
Delta-T

°C
Wind Press
QNH
hPa
Press
MSL
hPa
Rain
since
9 am
mm
Dir
 
Spd
km/h
Gust
km/h
Spd
kts
Gust
kts
29/11:00am 11.9 8.4 7.1 72 2.3 SE 15 19 8 10 1020.4 1020.4 0.0
29/10:30am 11.5 8.1 7.6 77 1.9 SE 15 20 8 11 1020.6 1020.6 0.0
29/10:00am 11.6 8.2 7.5 76 2.0 SE 15 20 8 11 1021.0 1021.0 0.0
29/09:30am 11.8 8.7 7.4 74 2.1 SE 13 17 7 9 1020.9 1020.9 0.0
29/09:00am 11.6 9.8 7.9 78 1.8 S 7 13 4 7 1021.0 1021.0 0.0
29/08:30am 11.4 8.4 7.7 78 1.8 ESE 13 15 7 8 1020.8 1020.8 0.0
29/08:00am 11.6 9.3 7.5 76 2.0 SSE 9 15 5 8 1020.7 1020.7 0.0
29/07:30am 11.4 8.7 7.5 77 1.9 SSE 11 15 6 8 1020.6 1020.6 0.0
29/07:00am 11.4 8.4 7.7 78 1.8 SSE 13 22 7 12 1020.4 1020.4 0.0
29/06:30am 11.3 7.3 8.2 81 1.5 SE 19 24 10 13 1020.3 1020.3 0.0
29/06:00am 11.6 8.3 8.1 79 1.7 SSE 15 22 8 12 1020.2 1020.2 0.0
29/05:30am 11.9 9.2 8.9 82 1.5 SSE 13 19 7 10 1019.9 1019.9 0.0
29/05:00am 12.0 8.6 9.2 83 1.4 SSE 17 22 9 12 1019.7 1019.7 0.0
29/04:30am 12.3 9.1 10.0 86 1.2 SE 17 22 9 12 1019.6 1019.6 0.0
29/04:00am 12.3 10.0 8.9 80 1.7 SSE 11 17 6 9 1019.8 1019.8 0.0
29/03:30am 12.5 9.3 8.5 76 2.0 SSW 15 22 8 12 1020.0 1020.0 0.0
29/03:00am 12.6 10.1 8.4 75 2.1 S 11 17 6 9 1019.8 1019.8 0.0
29/02:30am 12.8 9.4 7.5 70 2.6 SSW 15 22 8 12 1020.1 1020.1 0.0
29/02:00am 13.0 11.3 7.5 69 2.7 N 6 9 3 5 1019.9 1019.9 0.0
29/01:30am 13.0 12.6 8.1 72 2.4 CALM 0 0 0 0 1020.1 1020.1 0.0
29/01:00am 13.1 11.9 8.0 71 2.5 NE 4 7 2 4 1020.3 1020.3 0.0
29/12:30am 13.0 12.6 8.1 72 2.4 CALM 0 0 0 0 1020.5 1020.5 0.0
29/12:00am 12.8 12.3 7.9 72 2.4 CALM 0 0 0 0 1020.8 1020.8 0.0
 
Date/Time
EDT
Tmp

°C
App
Tmp
°C
Dew
Point
°C
Rel
Hum
%
Delta-T

°C
Wind Press
QNH
hPa
Press
MSL
hPa
Rain
since
9 am
mm
Dir
 
Spd
km/h
Gust
km/h
Spd
kts
Gust
kts
28/11:30pm 12.6 10.8 7.9 73 2.3 WSW 7 9 4 5 1020.9 1020.9 0.0
28/11:00pm 12.2 9.2 7.9 75 2.1 WSW 13 17 7 9 1021.2 1021.2 0.0
28/10:30pm 12.2 10.6 7.9 75 2.1 SW 6 11 3 6 1021.3 1021.3 0.0
28/10:00pm 13.0 11.6 7.2 68 2.8 ESE 4 7 2 4 1021.5 1021.5 0.0
28/09:30pm 13.5 11.1 7.1 65 3.1 E 9 13 5 7 1021.6 1021.6 0.0
28/09:00pm 13.7 11.5 7.8 67 2.9 ESE 9 11 5 6 1021.6 1021.6 0.0
28/08:30pm 13.9 10.9 7.8 66 3.0 SE 13 17 7 9 1021.4 1021.4 0.0
28/08:00pm 14.1 11.3 8.5 69 2.8 ESE 13 19 7 10 1021.3 1021.3 0.0
28/07:30pm 14.4 11.0 7.7 64 3.3 SSE 15 20 8 11 1021.1 1021.1 0.0
28/07:00pm 14.6 10.5 8.0 64 3.3 SE 19 26 10 14 1021.0 1021.0 0.0
28/06:30pm 14.7 9.6 7.6 62 3.5 SE 24 32 13 17 1020.7 1020.7 0.0
28/06:00pm 15.2 10.4 7.5 60 3.8 SE 22 30 12 16 1020.7 1020.7 0.0
28/05:30pm 15.2 10.3 7.0 58 4.0 SE 22 28 12 15 1020.8 1020.8 0.0
28/05:00pm 16.0 12.5 5.6 50 5.0 S 13 22 7 12 1020.7 1020.7 0.0
28/04:30pm 17.0 12.3 5.3 46 5.6 ESE 19 22 10 12 1020.4 1020.4 0.0
28/04:00pm 18.2 13.6 5.7 44 6.1 SE 19 24 10 13 1020.5 1020.5 0.0
28/03:30pm 17.4 12.4 4.8 43 6.0 SE 20 24 11 13 1020.5 1020.5 0.0
28/03:00pm 16.5 11.8 5.2 47 5.4 ESE 19 22 10 12 1020.8 1020.8 0.0
28/02:30pm 16.9 12.4 4.3 43 5.9 SE 17 22 9 12 1021.1 1021.1 0.0
28/02:00pm 16.5 12.0 4.0 43 5.8 SE 17 24 9 13 1021.3 1021.3 0.0
28/01:30pm 16.5 12.3 3.7 42 5.9 SE 15 20 8 11 1021.5 1021.5 0.0
28/01:00pm 15.7 11.5 3.7 44 5.5 ESE 15 19 8 10 1021.7 1021.7 0.0
28/12:30pm 16.2 11.9 3.3 42 5.9 ESE 15 20 8 11 1022.0 1022.0 0.0
28/12:00pm 15.9 11.5 2.5 40 6.0 E 15 20 8 11 1022.2 1022.2 0.0
28/11:30am 15.2 11.2 3.0 44 5.5 E 13 20 7 11 1022.5 1022.5 0.0
28/11:00am 15.7 11.6 2.2 40 6.0 NE 13 19 7 10 1022.7 1022.7 0.0
28/10:30am 14.8 10.7 2.1 42 5.6 E 13 17 7 9 1023.0 1023.0 0.0
28/10:00am 13.5 9.3 1.7 44 5.1 E 13 19 7 10 1023.1 1023.1 0.0
28/09:30am 14.0 9.9 2.4 45 5.1 ENE 13 17 7 9 1023.3 1023.3 0.0
28/09:00am 13.0 9.5 1.5 45 4.9 E 9 17 5 9 1023.7 1023.7 0.0
28/08:30am 12.7 9.0 2.3 49 4.5 NE 11 13 6 7 1023.6 1023.6 0.0
28/08:00am 12.8 8.9 1.2 45 4.9 ENE 11 17 6 9 1023.6 1023.6 0.0
28/07:30am 12.7 9.9 3.2 52 4.2 N 7 11 4 6 1023.6 1023.6 0.0
28/07:00am 10.8 8.1 2.7 57 3.5 ENE 6 7 3 4 1023.4 1023.4 0.0
28/06:30am 11.1 7.9 3.0 57 3.5 SW 9 13 5 7 1023.5 1023.5 0.0
28/06:00am 11.2 7.7 3.5 59 3.4 NNW 11 13 6 7 1023.2 1023.2 0.0
28/05:30am 11.2 8.8 4.3 62 3.1 NE 6 7 3 4 1023.1 1023.1 0.0
28/05:00am 11.0 9.7 4.0 62 3.1 CALM 0 2 0 1 1022.9 1022.9 0.0
28/04:30am 11.0 8.0 4.0 62 3.1 S 9 11 5 6 1023.2 1023.2 0.0
28/04:00am 11.4 9.1 5.8 68 2.6 WNW 7 13 4 7 1022.9 1022.9 0.0
28/03:30am 11.4 9.1 5.8 68 2.6 N 7 11 4 6 1022.8 1022.8 0.0
28/03:00am 11.3 9.1 5.4 67 2.7 NNE 6 9 3 5 1022.9 1022.9 0.0
28/02:30am 11.2 8.9 5.0 65 2.8 NNE 6 9 3 5 1023.1 1023.1 0.0
28/02:00am 11.3 8.9 5.2 66 2.8 NNE 7 11 4 6 1023.3 1023.3 0.0
28/01:30am 11.3 8.2 5.7 68 2.6 NNE 11 15 6 8 1023.5 1023.5 0.0
28/01:00am 11.3 8.6 5.4 67 2.7 N 9 13 5 7 1023.7 1023.7 0.0
28/12:30am 11.3 8.7 5.9 69 2.5 NNW 9 13 5 7 1023.8 1023.8 0.0
28/12:00am 10.7 9.0 5.7 71 2.3 NNW 4 9 2 5 1024.0 1024.0 0.0
 
Date/Time
EDT
Tmp

°C
App
Tmp
°C
Dew
Point
°C
Rel
Hum
%
Delta-T

°C
Wind Press
QNH
hPa
Press
MSL
hPa
Rain
since
9 am
mm
Dir
 
Spd
km/h
Gust
km/h
Spd
kts
Gust
kts
27/11:30pm 9.9 7.2 5.7 75 1.9 WSW 9 13 5 7 1024.2 1024.2 0.0
27/11:00pm 10.4 9.6 6.3 76 1.9 CALM 0 6 0 3 1024.1 1024.1 0.0
27/10:30pm 10.7 8.5 6.2 74 2.1 SSW 7 9 4 5 1024.4 1024.4 0.0
27/10:00pm 11.3 9.2 5.7 68 2.6 SSE 6 7 3 4 1024.4 1024.4 0.0
27/09:30pm 11.4 8.7 5.8 68 2.6 S 9 15 5 8 1024.1 1024.1 0.0
27/09:00pm 11.9 8.4 5.6 65 2.9 S 13 22 7 12 1024.0 1024.0 0.0
27/08:30pm 12.4 8.5 5.5 63 3.2 S 15 22 8 12 1023.9 1023.9 0.0
27/08:00pm 13.0 8.4 5.5 60 3.5 SSE 19 28 10 15 1023.5 1023.5 0.0
27/07:30pm 13.7 9.0 6.1 60 3.6 ESE 20 26 11 14 1023.2 1023.2 0.0
27/07:00pm 15.1 12.2 4.8 50 4.8 S 9 19 5 10 1022.9 1022.9 0.0
27/06:30pm 15.7 10.3 4.3 46 5.3 S 22 37 12 20 1022.5 1022.5 0.0
27/06:00pm 16.6 10.3 3.9 42 5.9 S 26 37 14 20 1022.4 1022.4 0.0
27/05:30pm 17.7 11.3 1.2 33 7.3 SSW 24 35 13 19 1022.5 1022.5 0.0
27/05:00pm 17.6 10.5 1.1 33 7.3 SSW 28 39 15 21 1022.5 1022.5 0.0
27/04:39pm 17.6 10.5 1.4 33 7.2 SSW 28 50 15 27 1022.5 1022.5 0.0
27/04:30pm 17.6 10.1 1.4 33 7.2 SSW 30 43 16 23 1022.7 1022.7 0.0
27/04:00pm 17.5 9.5 0.5 31 7.4 S 32 46 17 25 1022.7 1022.7 0.0
27/03:30pm 17.8 9.8 1.4 33 7.3 WSW 33 39 18 21 1023.0 1023.0 0.0
27/03:01pm 18.4 11.6 3.1 36 7.1 SSW 28 46 15 25 1022.8 1022.8 0.0
27/03:00pm 18.7 11.9 3.2 35 7.2 SSW 28 43 15 23 1022.9 1022.9 0.0
27/02:30pm 18.6 11.4 3.1 35 7.2 SSW 30 50 16 27 1022.9 1022.9 0.0
27/02:03pm 17.9 10.9 1.9 34 7.2 SSW 28 48 15 26 1022.6 1022.6 0.0
27/02:00pm 18.0 11.8 2.1 34 7.2 SSW 24 48 13 26 1022.6 1022.6 0.0
27/01:30pm 17.5 12.3 2.5 36 6.8 SSW 19 39 10 21 1022.9 1022.9 0.0
27/01:00pm 17.8 11.7 3.0 37 6.8 SW 24 39 13 21 1023.0 1023.0 0.0
27/12:30pm 17.5 10.6 2.5 36 6.8 SW 28 46 15 25 1022.9 1022.9 0.0
27/12:26pm 17.3 10.4 2.5 37 6.7 SW 28 46 15 25 1022.9 1022.9 0.0
27/12:00pm 17.2 11.4 2.4 37 6.7 SW 22 32 12 17 1023.2 1023.2 0.0
27/11:30am 16.6 10.4 2.4 38 6.4 SW 24 33 13 18 1023.3 1023.3 0.0
27/11:04am 15.6 7.8 1.7 39 6.1 SSW 32 50 17 27 1023.3 1023.3 0.0
27/11:00am 15.0 7.1 1.1 39 6.0 SSW 32 46 17 25 1023.4 1023.4 0.0
27/10:30am 15.2 7.2 1.7 40 5.9 SSW 33 48 18 26 1023.3 1023.3 0.0
27/10:00am 14.6 6.9 2.1 43 5.5 SW 32 56 17 30 1023.5 1023.5 0.0
27/09:44am 14.9 7.8 1.6 40 5.8 SW 28 46 15 25 1023.4 1023.4 0.0
27/09:30am 15.5 10.0 0.9 37 6.3 SSW 19 33 10 18 1023.5 1023.5 0.0
27/09:00am 14.9 11.8 1.3 39 5.9 NE 7 13 4 7 1023.3 1023.3 0.2
27/08:30am 13.1 8.9 1.4 45 5.0 NE 13 19 7 10 1023.2 1023.2 0.2
27/08:00am 13.2 9.0 1.8 46 4.9 N 13 24 7 13 1023.1 1023.1 0.2
27/07:30am 11.6 8.1 1.4 49 4.3 S 9 15 5 8 1023.0 1023.0 0.2
27/07:00am 11.0 7.3 2.6 56 3.6 E 11 15 6 8 1022.7 1022.7 0.2
27/06:30am 11.2 7.6 0.8 48 4.3 S 9 26 5 14 1022.3 1022.3 0.2
27/06:00am 10.5 7.6 1.7 54 3.7 NNE 6 13 3 7 1022.1 1022.1 0.2
27/05:30am 10.8 7.8 0.9 50 4.1 SE 6 9 3 5 1021.8 1021.8 0.2
27/05:00am 10.9 8.6 0.4 48 4.3 E 2 9 1 5 1021.3 1021.3 0.2
27/04:30am 11.0 4.8 -0.1 46 4.5 WSW 22 33 12 18 1021.2 1021.2 0.2
27/04:00am 11.1 5.4 0.3 47 4.4 WSW 20 32 11 17 1020.9 1020.9 0.2
27/03:30am 11.1 6.0 0.7 48 4.3 WSW 17 28 9 15 1020.8 1020.8 0.2
27/03:00am 11.0 7.0 0.8 49 4.2 WSW 11 22 6 12 1020.7 1020.7 0.2
27/02:30am 11.0 6.0 1.5 52 4.0 SW 17 24 9 13 1021.0 1021.0 0.2
27/02:00am 11.3 7.4 1.3 50 4.2 SW 11 19 6 10 1021.0 1021.0 0.2
27/01:30am 11.4 6.3 0.8 48 4.4 WSW 17 24 9 13 1021.0 1021.0 0.2
27/01:00am 11.2 7.7 1.1 50 4.2 WNW 9 22 5 12 1021.0 1021.0 0.2
27/12:30am 11.3 7.9 1.9 52 4.0 SW 9 19 5 10 1021.1 1021.1 0.2
27/12:00am 11.7 7.9 1.5 49 4.3 W 11 20 6 11 1021.2 1021.2 0.2
 
Date/Time
EDT
Tmp

°C
App
Tmp
°C
Dew
Point
°C
Rel
Hum
%
Delta-T

°C
Wind Press
QNH
hPa
Press
MSL
hPa
Rain
since
9 am
mm
Dir
 
Spd
km/h
Gust
km/h
Spd
kts
Gust
kts
26/11:30pm 11.6 7.9 2.3 53 4.0 W 11 20 6 11 1021.1 1021.1 0.2
26/11:00pm 11.7 9.3 2.1 51 4.1 S 4 9 2 5 1021.1 1021.1 0.2
26/10:30pm 11.9 8.0 0.9 47 4.6 W 11 20 6 11 1020.9 1020.9 0.2
26/10:00pm 12.2 8.3 1.3 47 4.6 NW 11 20 6 11 1020.7 1020.7 0.2
26/09:30pm 12.3 8.5 1.5 47 4.6 W 11 20 6 11 1020.3 1020.3 0.2
26/09:00pm 12.4 9.0 1.6 47 4.6 S 9 24 5 13 1019.9 1019.9 0.2
26/08:30pm 12.8 8.9 1.3 45 4.9 S 11 20 6 11 1019.6 1019.6 0.2
26/08:00pm 12.9 8.5 2.9 50 4.4 SW 15 20 8 11 1019.1 1019.1 0.2
26/07:30pm 13.7 9.2 2.0 45 5.1 SW 15 22 8 12 1018.8 1018.8 0.2
26/07:00pm 13.9 9.2 2.9 47 4.9 SW 17 24 9 13 1018.2 1018.2 0.2
26/06:30pm 14.6 9.6 3.6 47 5.0 SSW 19 28 10 15 1017.9 1017.9 0.2
26/06:00pm 15.7 10.6 2.9 42 5.8 SW 19 30 10 16 1017.3 1017.3 0.2
26/05:30pm 15.4 10.1 3.0 43 5.6 SW 20 37 11 20 1017.3 1017.3 0.2
26/05:00pm 15.3 9.8 4.0 47 5.2 SW 22 37 12 20 1017.0 1017.0 0.2
26/04:30pm 16.7 10.7 3.2 40 6.2 WSW 24 35 13 19 1016.7 1016.7 0.2
26/04:00pm 16.0 9.3 3.9 44 5.6 SW 28 41 15 22 1016.4 1016.4 0.2
26/03:30pm 16.6 11.8 4.8 45 5.6 SW 19 28 10 15 1016.3 1016.3 0.0
26/03:00pm 15.5 10.8 2.9 42 5.7 SW 17 39 9 21 1016.2 1016.2 0.0
26/02:47pm 14.8 7.9 2.7 44 5.4 WSW 28 46 15 25 1016.2 1016.2 0.0
26/02:30pm 17.6 13.2 4.9 43 6.1 W 17 32 9 17 1015.9 1015.9 0.0
26/02:00pm 14.1 8.0 6.7 61 3.6 SSW 28 43 15 23 1015.8 1015.8 0.0
26/01:30pm 16.3 10.4 4.1 44 5.7 SW 24 37 13 20 1015.6 1015.6 0.0
26/01:00pm 15.5 10.7 5.4 51 4.8 WSW 20 39 11 21 1015.6 1015.6 0.0
26/12:30pm 15.8 8.7 3.6 44 5.6 SW 30 46 16 25 1015.1 1015.1 0.0
26/12:12pm 16.0 8.3 3.3 42 5.8 W 33 52 18 28 1015.1 1015.1 0.0
26/12:00pm 16.1 11.2 4.9 47 5.3 SW 20 30 11 16 1015.1 1015.1 0.0
26/11:30am 14.8 9.5 5.0 52 4.6 WSW 22 37 12 20 1014.8 1014.8 0.0

Latest Capital City Observations: Canberra | Sydney | Melbourne | Brisbane | Adelaide | Perth | Hobart | Darwin

Other Formats:

Comma delimited format used in spreadsheet applications
http://www.bom.gov.au/fwo/IDT60901/IDT60901.94970.axf

JavaScript Object Notation format (JSON) in row-major order
http://www.bom.gov.au/fwo/IDT60901/IDT60901.94970.json